createdAt,value
2023-02-27T00:00:47.104Z,60.67
2023-02-27T00:03:17.613Z,60.73
2023-02-27T00:05:48.095Z,60.72
2023-02-27T00:08:18.556Z,60.56
2023-02-27T00:10:48.980Z,60.58
2023-02-27T00:13:20.839Z,60.66
2023-02-27T00:15:51.888Z,60.61
2023-02-27T00:18:22.404Z,60.68
2023-02-27T00:20:52.813Z,60.55
2023-02-27T00:23:23.242Z,60.48
2023-02-27T00:25:54.858Z,60.68
2023-02-27T00:28:25.858Z,60.83
2023-02-27T00:30:56.496Z,60.88
2023-02-27T00:33:26.948Z,60.95
2023-02-27T00:36:01.969Z,60.81
2023-02-27T00:38:32.617Z,60.97
2023-02-27T00:41:03.359Z,60.92
2023-02-27T00:43:33.804Z,60.89
2023-02-27T00:46:05.334Z,60.78
2023-02-27T00:48:35.940Z,60.59
2023-02-27T00:51:06.978Z,60.71
2023-02-27T00:53:37.494Z,60.74
2023-02-27T00:56:09.084Z,60.84
2023-02-27T00:58:39.568Z,60.74
2023-02-27T01:01:10.133Z,60.86
2023-02-27T01:03:40.795Z,60.91
2023-02-27T01:06:11.485Z,60.94
2023-02-27T01:08:41.945Z,61.04
2023-02-27T01:11:12.422Z,60.79
2023-02-27T01:13:44.355Z,61.05
2023-02-27T01:16:15.515Z,60.72
2023-02-27T01:18:46.141Z,60.91
2023-02-27T01:21:16.996Z,60.89
2023-02-27T01:23:48.856Z,60.74
2023-02-27T01:26:23.784Z,60.87
2023-02-27T01:28:54.297Z,60.81
2023-02-27T01:31:25.111Z,60.80
2023-02-27T01:33:57.888Z,60.85
2023-02-27T01:36:28.460Z,60.72
2023-02-27T01:38:58.924Z,60.74
2023-02-27T01:41:29.890Z,60.72
2023-02-27T01:44:03.403Z,60.67
2023-02-27T01:46:34.956Z,60.83
2023-02-27T01:49:10.731Z,60.97
2023-02-27T01:51:44.603Z,60.78
2023-02-27T01:54:18.603Z,60.78
2023-02-27T01:56:49.540Z,60.70
2023-02-27T01:59:21.220Z,60.71
2023-02-27T02:01:54.373Z,60.76
2023-02-27T02:04:28.330Z,60.71
2023-02-27T02:07:04.368Z,60.72
2023-02-27T02:09:37.258Z,60.51
2023-02-27T02:12:09.210Z,60.48
2023-02-27T02:14:39.740Z,60.44
2023-02-27T02:17:17.126Z,60.37
2023-02-27T02:20:02.632Z,60.34
2023-02-27T02:22:59.967Z,60.28
2023-02-27T02:25:59.790Z,60.33
2023-02-27T02:28:57.506Z,60.31
2023-02-27T02:31:43.025Z,60.25
2023-02-27T02:34:52.915Z,60.30
2023-02-27T02:37:59.167Z,60.44
2023-02-27T02:40:40.355Z,60.35
2023-02-27T02:43:17.945Z,60.49
2023-02-27T02:45:56.260Z,60.52
2023-02-27T02:48:33.161Z,60.49
2023-02-27T02:51:16.777Z,60.44
2023-02-27T02:53:54.373Z,60.43
2023-02-27T02:56:30.418Z,60.43
2023-02-27T02:59:05.774Z,60.41
2023-02-27T03:01:42.083Z,60.59
2023-02-27T03:04:19.489Z,60.44
2023-02-27T03:06:55.097Z,60.62
2023-02-27T03:09:31.446Z,60.61
2023-02-27T03:12:04.235Z,60.72
2023-02-27T03:14:40.876Z,60.82
2023-02-27T03:17:16.563Z,60.72
2023-02-27T03:19:55.078Z,60.88
2023-02-27T03:22:31.228Z,60.64
2023-02-27T03:25:04.309Z,60.85
2023-02-27T03:27:39.457Z,60.94
2023-02-27T03:30:17.141Z,60.82
2023-02-27T03:32:56.897Z,60.89
2023-02-27T03:35:33.987Z,60.91
2023-02-27T03:38:12.964Z,60.93
2023-02-27T03:40:50.700Z,60.95
2023-02-27T03:43:32.112Z,60.99
2023-02-27T03:46:09.611Z,61.12
2023-02-27T03:48:44.454Z,61.11
2023-02-27T03:51:18.303Z,61.05
2023-02-27T03:53:56.317Z,61.07
2023-02-27T03:56:30.752Z,61.03
2023-02-27T03:59:01.879Z,60.71
2023-02-27T04:01:33.174Z,60.90
2023-02-27T04:04:09.208Z,60.82
2023-02-27T04:07:21.199Z,60.78
2023-02-27T04:10:15.700Z,60.67
2023-02-27T04:13:28.818Z,60.52
2023-02-27T04:16:20.964Z,60.71
2023-02-27T04:19:04.795Z,60.56
2023-02-27T04:21:42.819Z,60.59
2023-02-27T04:24:22.210Z,60.44
2023-02-27T04:26:56.972Z,60.56
2023-02-27T04:29:38.464Z,60.62
2023-02-27T04:32:17.023Z,60.45
2023-02-27T04:34:53.265Z,60.50
2023-02-27T04:37:28.886Z,60.61
2023-02-27T04:40:06.649Z,60.73
2023-02-27T04:42:39.973Z,60.74
2023-02-27T04:45:16.141Z,60.75
2023-02-27T04:47:52.732Z,60.87
2023-02-27T04:50:28.681Z,60.89
2023-02-27T04:53:04.085Z,60.87
2023-02-27T04:55:37.417Z,61.04
2023-02-27T04:58:13.924Z,61.15
2023-02-27T05:00:49.226Z,61.44
2023-02-27T05:03:25.583Z,61.36
2023-02-27T05:05:59.449Z,61.30
2023-02-27T05:08:34.978Z,61.58
2023-02-27T05:11:10.606Z,61.43
2023-02-27T05:13:46.881Z,61.65
2023-02-27T05:16:22.260Z,61.59
2023-02-27T05:18:53.081Z,61.52
2023-02-27T05:21:29.221Z,61.74
2023-02-27T05:24:12.532Z,61.61
2023-02-27T05:26:56.156Z,61.72
2023-02-27T05:29:37.369Z,61.92
2023-02-27T05:32:17.914Z,61.90
2023-02-27T05:34:53.917Z,62.07
2023-02-27T05:37:30.738Z,62.16
2023-02-27T05:40:06.185Z,62.14
2023-02-27T05:42:41.739Z,62.09
2023-02-27T05:45:16.255Z,62.37
2023-02-27T05:47:53.866Z,62.39
2023-02-27T05:50:27.535Z,62.40
2023-02-27T05:53:03.908Z,62.33
2023-02-27T05:55:39.002Z,62.47
2023-02-27T05:58:16.949Z,62.53
2023-02-27T06:00:52.031Z,62.65
2023-02-27T06:03:23.048Z,62.61
2023-02-27T06:05:54.896Z,62.69
2023-02-27T06:08:26.293Z,62.58
2023-02-27T06:10:56.735Z,62.41
2023-02-27T06:13:27.209Z,62.42
2023-02-27T06:15:57.697Z,62.45
2023-02-27T06:18:28.375Z,62.65
2023-02-27T06:20:58.886Z,62.31
2023-02-27T06:23:29.370Z,62.28
2023-02-27T06:26:00.593Z,62.28
2023-02-27T06:28:31.354Z,62.25
2023-02-27T06:31:02.062Z,62.33
2023-02-27T06:33:33.293Z,62.31
2023-02-27T06:36:03.832Z,62.31
2023-02-27T06:38:34.852Z,62.24
2023-02-27T06:41:05.572Z,62.36
2023-02-27T06:43:37.207Z,62.26
2023-02-27T06:46:08.175Z,62.13
2023-02-27T06:48:38.662Z,62.13
2023-02-27T06:51:09.315Z,62.04
2023-02-27T06:53:39.763Z,62.12
2023-02-27T06:56:11.023Z,62.09
2023-02-27T06:58:41.473Z,62.10
2023-02-27T07:01:13.479Z,62.15
2023-02-27T07:03:43.991Z,62.12
2023-02-27T07:06:15.010Z,62.27
2023-02-27T07:09:01.513Z,62.26
2023-02-27T07:11:36.534Z,62.33
2023-02-27T07:14:07.476Z,62.22
2023-02-27T07:16:37.892Z,62.40
2023-02-27T07:19:08.860Z,62.37
2023-02-27T07:21:39.859Z,62.34
2023-02-27T07:24:11.225Z,62.39
2023-02-27T07:26:41.648Z,62.56
2023-02-27T07:29:12.125Z,62.39
2023-02-27T07:31:42.824Z,62.45
2023-02-27T07:34:13.874Z,62.43
2023-02-27T07:36:44.426Z,62.27
2023-02-27T07:39:15.835Z,62.23
2023-02-27T07:41:46.257Z,62.32
2023-02-27T07:44:20.761Z,62.17
2023-02-27T07:46:51.598Z,62.28
2023-02-27T07:49:22.210Z,62.26
2023-02-27T07:51:52.685Z,62.28
2023-02-27T07:54:23.215Z,62.35
2023-02-27T07:56:53.678Z,62.27
2023-02-27T07:59:24.151Z,62.34
2023-02-27T08:01:54.648Z,62.16
2023-02-27T08:04:25.593Z,62.18
2023-02-27T08:06:56.194Z,62.23
2023-02-27T08:09:26.607Z,62.06
2023-02-27T08:11:57.235Z,62.21
2023-02-27T08:14:27.862Z,62.09
2023-02-27T08:16:58.315Z,62.19
2023-02-27T08:19:28.905Z,62.04
2023-02-27T08:21:59.473Z,62.13
2023-02-27T08:24:30.308Z,62.02
2023-02-27T08:27:00.729Z,62.16
2023-02-27T08:29:32.987Z,62.05
2023-02-27T08:32:04.782Z,61.87
2023-02-27T08:34:35.238Z,61.61
2023-02-27T08:37:06.006Z,61.59
2023-02-27T08:39:36.478Z,61.35
2023-02-27T08:42:07.781Z,61.25
2023-02-27T08:44:38.297Z,61.20
2023-02-27T08:47:08.818Z,61.18
2023-02-27T08:49:39.301Z,60.93
2023-02-27T08:52:10.109Z,60.95
2023-02-27T08:54:40.557Z,60.84
2023-02-27T08:57:11.020Z,60.63
2023-02-27T08:59:41.440Z,60.64
2023-02-27T09:02:12.562Z,60.53
2023-02-27T09:04:42.987Z,60.77
2023-02-27T09:07:13.412Z,60.55
2023-02-27T09:09:43.831Z,60.24
2023-02-27T09:12:14.282Z,60.14
2023-02-27T09:14:44.894Z,60.12
2023-02-27T09:17:15.302Z,60.19
2023-02-27T09:19:46.605Z,60.29
2023-02-27T09:22:17.007Z,60.32
2023-02-27T09:24:47.469Z,60.15
2023-02-27T09:27:17.883Z,59.75
2023-02-27T09:29:48.983Z,59.39
2023-02-27T09:32:19.438Z,59.27
2023-02-27T09:34:50.445Z,59.17
2023-02-27T09:37:21.283Z,59.05
2023-02-27T09:39:51.834Z,58.68
2023-02-27T09:42:24.784Z,58.79
2023-02-27T09:44:58.186Z,58.71
2023-02-27T09:47:34.869Z,58.42
2023-02-27T09:50:09.160Z,58.42
2023-02-27T09:52:40.538Z,58.55
2023-02-27T09:55:18.812Z,58.37
2023-02-27T09:57:56.441Z,58.50
2023-02-27T10:00:49.197Z,58.50
2023-02-27T10:03:39.597Z,58.16
2023-02-27T10:06:24.032Z,58.17
2023-02-27T10:09:05.559Z,58.05
2023-02-27T10:11:45.720Z,57.57
2023-02-27T10:14:29.552Z,57.51
2023-02-27T10:17:03.965Z,57.11
2023-02-27T10:19:38.668Z,57.34
2023-02-27T10:22:15.672Z,57.45
2023-02-27T10:24:53.054Z,57.32
2023-02-27T10:27:24.489Z,56.94
2023-02-27T10:29:59.334Z,56.86
2023-02-27T10:32:34.064Z,56.65
2023-02-27T10:35:10.513Z,56.48
2023-02-27T10:37:47.602Z,56.22
2023-02-27T10:40:20.647Z,55.56
2023-02-27T10:42:52.665Z,55.52
2023-02-27T10:45:23.079Z,55.12
2023-02-27T10:47:53.627Z,55.02
2023-02-27T10:50:27.544Z,54.69
2023-02-27T10:53:00.708Z,54.88
2023-02-27T10:55:33.641Z,54.65
2023-02-27T10:58:06.099Z,54.57
2023-02-27T11:00:45.113Z,54.22
2023-02-27T11:03:28.944Z,54.28
2023-02-27T11:06:02.794Z,53.57
2023-02-27T11:08:35.028Z,52.94
2023-02-27T11:11:05.795Z,53.05
2023-02-27T11:13:38.449Z,52.91
2023-02-27T11:16:14.095Z,52.83
2023-02-27T11:18:45.650Z,52.59
2023-02-27T11:21:26.205Z,52.01
2023-02-27T11:24:02.555Z,51.97
2023-02-27T11:26:36.351Z,52.02
2023-02-27T11:29:18.425Z,52.12
2023-02-27T11:31:53.470Z,51.77
2023-02-27T11:34:28.067Z,51.73
2023-02-27T11:37:01.874Z,51.57
2023-02-27T11:39:48.806Z,51.56
2023-02-27T11:42:25.713Z,51.37
2023-02-27T11:45:00.896Z,51.29
2023-02-27T11:47:35.509Z,50.87
2023-02-27T11:50:26.577Z,50.63
2023-02-27T11:53:04.472Z,50.60
2023-02-27T11:55:35.540Z,50.38
2023-02-27T11:58:14.911Z,49.87
2023-02-27T12:00:50.553Z,49.37
2023-02-27T12:03:26.314Z,49.37
2023-02-27T12:06:01.032Z,49.55
2023-02-27T12:08:36.994Z,49.33
2023-02-27T12:11:14.950Z,49.07
2023-02-27T12:13:50.672Z,49.15
2023-02-27T12:16:32.271Z,49.60
2023-02-27T12:19:13.754Z,49.90
2023-02-27T12:21:49.723Z,50.25
2023-02-27T12:24:25.844Z,50.38
2023-02-27T12:27:07.573Z,49.83
2023-02-27T12:29:42.953Z,49.42
2023-02-27T12:32:19.178Z,49.90
2023-02-27T12:34:53.091Z,49.72
2023-02-27T12:37:26.657Z,50.01
2023-02-27T12:40:00.054Z,50.26
2023-02-27T12:42:47.680Z,50.79
2023-02-27T12:45:41.789Z,51.56
2023-02-27T12:48:19.967Z,51.57
2023-02-27T12:50:59.292Z,52.16
2023-02-27T12:53:49.193Z,52.53
2023-02-27T12:56:22.809Z,53.02
2023-02-27T12:59:01.533Z,52.93
2023-02-27T13:01:44.322Z,53.20
2023-02-27T13:04:25.093Z,53.24
2023-02-27T13:07:04.288Z,53.00
2023-02-27T13:09:45.431Z,52.63
2023-02-27T13:12:25.077Z,52.00
2023-02-27T13:15:02.315Z,51.08
2023-02-27T13:17:40.233Z,51.03
2023-02-27T13:20:30.855Z,51.02
2023-02-27T13:23:13.139Z,50.45
2023-02-27T13:25:46.996Z,50.52
2023-02-27T13:28:20.951Z,50.18
2023-02-27T13:31:05.570Z,50.10
2023-02-27T13:33:45.229Z,50.03
2023-02-27T13:36:23.934Z,49.31
2023-02-27T13:38:56.375Z,49.86
2023-02-27T13:41:40.424Z,49.49
2023-02-27T13:44:41.070Z,49.52
2023-02-27T13:47:43.525Z,49.85
2023-02-27T13:50:51.474Z,50.27
2023-02-27T13:53:24.591Z,50.33
2023-02-27T13:56:18.726Z,50.70
2023-02-27T13:58:49.752Z,50.89
2023-02-27T14:01:28.476Z,51.35
2023-02-27T14:04:04.722Z,51.21
2023-02-27T14:06:44.295Z,51.54
2023-02-27T14:09:20.129Z,51.70
2023-02-27T14:11:59.100Z,51.62
2023-02-27T14:14:46.313Z,52.35
2023-02-27T14:17:45.261Z,52.39
2023-02-27T14:20:36.768Z,52.62
2023-02-27T14:23:23.759Z,52.32
2023-02-27T14:25:56.595Z,52.84
2023-02-27T14:28:31.655Z,52.68
2023-02-27T14:31:05.848Z,53.03
2023-02-27T14:33:45.489Z,53.23
2023-02-27T14:36:21.661Z,53.37
2023-02-27T14:38:55.472Z,53.18
2023-02-27T14:41:40.248Z,53.43
2023-02-27T14:44:21.159Z,53.09
2023-02-27T14:46:53.864Z,53.24
2023-02-27T14:49:28.286Z,53.51
2023-02-27T14:52:12.579Z,53.58
2023-02-27T14:54:45.079Z,53.68
2023-02-27T14:57:21.058Z,53.63
2023-02-27T14:59:55.226Z,53.53
2023-02-27T15:02:28.567Z,53.29
2023-02-27T15:05:16.990Z,53.02
2023-02-27T15:07:49.269Z,53.20
2023-02-27T15:10:20.563Z,53.20
2023-02-27T15:12:52.436Z,53.31
2023-02-27T15:15:23.836Z,52.53
2023-02-27T15:17:55.951Z,52.34
2023-02-27T15:20:30.088Z,52.09
2023-02-27T15:23:02.588Z,51.95
2023-02-27T15:25:36.631Z,52.00
2023-02-27T15:28:14.911Z,51.85
2023-02-27T15:30:50.406Z,51.98
2023-02-27T15:33:25.412Z,51.83
2023-02-27T15:35:56.267Z,52.02
2023-02-27T15:38:29.469Z,52.22
2023-02-27T15:41:02.603Z,52.25
2023-02-27T15:43:33.967Z,52.46
2023-02-27T15:46:05.007Z,52.39
2023-02-27T15:48:35.839Z,52.60
2023-02-27T15:51:10.163Z,52.58
2023-02-27T15:53:48.999Z,52.87
2023-02-27T15:56:23.972Z,52.97
2023-02-27T15:59:00.259Z,52.85
2023-02-27T16:01:34.951Z,52.95
2023-02-27T16:04:14.841Z,53.04
2023-02-27T16:06:52.010Z,53.04
2023-02-27T16:09:30.261Z,52.59
2023-02-27T16:12:24.887Z,52.29
2023-02-27T16:15:12.898Z,51.67
2023-02-27T16:17:55.622Z,51.62
2023-02-27T16:20:39.083Z,51.40
2023-02-27T16:23:23.603Z,51.28
2023-02-27T16:26:06.328Z,51.59
2023-02-27T16:28:51.087Z,51.66
2023-02-27T16:31:30.496Z,51.84
2023-02-27T16:34:03.609Z,51.91
2023-02-27T16:36:35.055Z,51.79
2023-02-27T16:39:06.195Z,51.97
2023-02-27T16:41:37.036Z,51.87
2023-02-27T16:44:07.857Z,52.30
2023-02-27T16:46:38.904Z,52.21
2023-02-27T16:49:20.175Z,52.48
2023-02-27T16:51:51.921Z,52.56
2023-02-27T16:54:23.208Z,52.54
2023-02-27T16:56:53.736Z,52.64
2023-02-27T16:59:31.578Z,52.70
2023-02-27T17:02:04.134Z,52.68
2023-02-27T17:04:36.334Z,52.64
2023-02-27T17:07:07.037Z,52.81
2023-02-27T17:09:37.440Z,52.92
2023-02-27T17:12:08.129Z,52.93
2023-02-27T17:14:38.845Z,52.99
2023-02-27T17:17:11.091Z,53.09
2023-02-27T17:19:41.629Z,52.99
2023-02-27T17:22:12.358Z,53.18
2023-02-27T17:24:42.860Z,53.14
2023-02-27T17:27:13.277Z,53.09
2023-02-27T17:29:43.843Z,53.41
2023-02-27T17:32:14.628Z,53.56
2023-02-27T17:34:45.154Z,53.51
2023-02-27T17:37:15.580Z,53.66
2023-02-27T17:39:46.014Z,53.67
2023-02-27T17:42:18.644Z,53.62
2023-02-27T17:44:49.681Z,53.58
2023-02-27T17:47:20.661Z,53.76
2023-02-27T17:49:51.128Z,53.72
2023-02-27T17:52:22.257Z,53.66
2023-02-27T17:54:52.881Z,53.61
2023-02-27T17:57:23.331Z,53.71
2023-02-27T17:59:53.746Z,53.90
2023-02-27T18:02:24.230Z,53.93
2023-02-27T18:04:55.026Z,53.92
2023-02-27T18:07:25.498Z,54.16
2023-02-27T18:09:55.987Z,54.17
2023-02-27T18:12:26.443Z,54.21
2023-02-27T18:14:57.336Z,54.34
2023-02-27T18:17:28.102Z,54.40
2023-02-27T18:19:59.020Z,54.31
2023-02-27T18:22:32.946Z,54.33
2023-02-27T18:25:03.404Z,54.48
2023-02-27T18:27:34.072Z,54.26
2023-02-27T18:30:04.903Z,54.33
2023-02-27T18:32:35.359Z,54.37
2023-02-27T18:35:06.950Z,54.15
2023-02-27T18:37:37.469Z,53.91
2023-02-27T18:40:11.995Z,53.90
2023-02-27T18:42:43.255Z,53.82
2023-02-27T18:45:14.578Z,53.80
2023-02-27T18:47:45.181Z,53.65
2023-02-27T18:50:15.937Z,53.65
2023-02-27T18:52:47.414Z,53.53
2023-02-27T18:55:18.596Z,53.36
2023-02-27T18:57:51.014Z,53.36
2023-02-27T19:00:21.683Z,53.22
2023-02-27T19:02:52.535Z,53.44
2023-02-27T19:05:23.111Z,53.29
2023-02-27T19:07:53.559Z,53.22
2023-02-27T19:10:23.989Z,53.05
2023-02-27T19:12:54.803Z,53.01
2023-02-27T19:15:25.210Z,53.00
2023-02-27T19:17:55.662Z,52.94
2023-02-27T19:20:26.130Z,52.93
2023-02-27T19:22:56.529Z,52.91
2023-02-27T19:25:27.252Z,52.71
2023-02-27T19:28:00.428Z,52.85
2023-02-27T19:30:30.831Z,53.03
2023-02-27T19:33:01.462Z,52.85
2023-02-27T19:35:31.928Z,53.16
2023-02-27T19:38:02.477Z,53.03
2023-02-27T19:40:32.893Z,53.12
2023-02-27T19:43:03.366Z,53.00
2023-02-27T19:45:33.924Z,53.36
2023-02-27T19:48:04.379Z,53.21
2023-02-27T19:50:34.777Z,53.56
2023-02-27T19:53:05.441Z,53.64
2023-02-27T19:55:35.887Z,53.72
2023-02-27T19:58:06.530Z,53.83
2023-02-27T20:00:36.933Z,53.78
2023-02-27T20:03:07.501Z,53.76
2023-02-27T20:05:41.027Z,53.94
2023-02-27T20:08:11.469Z,53.90
2023-02-27T20:10:43.110Z,54.08
2023-02-27T20:13:14.922Z,54.15
2023-02-27T20:15:45.338Z,54.26
2023-02-27T20:18:15.753Z,54.26
2023-02-27T20:20:46.187Z,54.21
2023-02-27T20:23:17.240Z,54.44
2023-02-27T20:25:47.684Z,54.31
2023-02-27T20:28:18.138Z,54.65
2023-02-27T20:30:48.712Z,54.57
2023-02-27T20:33:19.185Z,54.69
2023-02-27T20:35:49.704Z,54.73
2023-02-27T20:38:22.750Z,54.83
2023-02-27T20:40:57.628Z,54.80
2023-02-27T20:43:28.776Z,54.92
2023-02-27T20:46:02.720Z,55.11
2023-02-27T20:48:33.574Z,55.33
2023-02-27T20:51:10.283Z,55.35
2023-02-27T20:53:43.031Z,55.35
2023-02-27T20:56:13.839Z,55.36
2023-02-27T20:58:44.336Z,55.47
2023-02-27T21:01:16.106Z,55.44
2023-02-27T21:03:50.413Z,55.47
2023-02-27T21:06:21.012Z,55.37
2023-02-27T21:08:53.943Z,55.43
2023-02-27T21:11:27.399Z,55.43
2023-02-27T21:13:59.172Z,55.47
2023-02-27T21:16:29.612Z,55.60
2023-02-27T21:19:00.274Z,55.55
2023-02-27T21:21:32.481Z,55.67
2023-02-27T21:24:03.756Z,55.54
2023-02-27T21:26:37.910Z,55.62
2023-02-27T21:29:10.735Z,55.52
2023-02-27T21:31:45.054Z,55.62
2023-02-27T21:34:17.724Z,55.45
2023-02-27T21:36:49.046Z,55.45
2023-02-27T21:39:22.116Z,55.42
2023-02-27T21:41:52.927Z,55.34
2023-02-27T21:44:25.370Z,55.00
2023-02-27T21:46:56.651Z,55.04
2023-02-27T21:49:31.191Z,55.04
2023-02-27T21:52:01.618Z,54.93
2023-02-27T21:54:32.389Z,55.00
2023-02-27T21:57:03.287Z,55.07
2023-02-27T21:59:34.251Z,55.06
2023-02-27T22:02:04.698Z,55.10
2023-02-27T22:04:35.101Z,54.85
2023-02-27T22:07:05.546Z,54.91
2023-02-27T22:09:35.971Z,54.66
2023-02-27T22:12:07.530Z,54.79
2023-02-27T22:14:37.939Z,54.69
2023-02-27T22:17:08.478Z,54.45
2023-02-27T22:19:39.008Z,54.47
2023-02-27T22:22:09.441Z,54.33
2023-02-27T22:24:39.933Z,54.36
2023-02-27T22:27:10.511Z,54.42
2023-02-27T22:29:42.348Z,54.25
2023-02-27T22:32:13.763Z,54.18
2023-02-27T22:34:44.206Z,54.33
2023-02-27T22:37:16.201Z,54.29
2023-02-27T22:39:46.757Z,54.24
2023-02-27T22:42:17.193Z,54.22
2023-02-27T22:44:47.647Z,54.05
2023-02-27T22:47:18.071Z,53.97
2023-02-27T22:49:50.948Z,53.82
2023-02-27T22:52:21.798Z,53.69
2023-02-27T22:54:53.152Z,53.79
2023-02-27T22:57:23.642Z,53.87
2023-02-27T22:59:54.033Z,54.08
2023-02-27T23:02:24.593Z,54.26
2023-02-27T23:04:55.018Z,54.27
2023-02-27T23:07:25.420Z,54.37
2023-02-27T23:09:55.861Z,54.43
2023-02-27T23:12:27.490Z,54.65
2023-02-27T23:14:58.301Z,54.57
2023-02-27T23:17:28.739Z,54.31
2023-02-27T23:19:59.209Z,54.35
2023-02-27T23:22:33.469Z,54.31
2023-02-27T23:25:07.284Z,54.32
2023-02-27T23:27:37.692Z,54.32
2023-02-27T23:30:10.884Z,54.42
2023-02-27T23:32:43.796Z,54.37
2023-02-27T23:35:16.301Z,54.38
2023-02-27T23:37:46.753Z,54.07
2023-02-27T23:40:18.001Z,53.86
2023-02-27T23:42:48.403Z,53.96
2023-02-27T23:45:25.195Z,54.04
2023-02-27T23:47:57.712Z,53.82
2023-02-27T23:50:27.468Z,53.77
2023-02-27T23:52:59.981Z,53.70
2023-02-27T23:55:33.915Z,53.36
2023-02-27T23:58:06.404Z,53.21
